sensor_id;sensor_type;location;lat;lon;timestamp;temperature;humidity
10788;DHT22;5446;50.826;4.380;2023-04-03T00:01:09;4.20;99.90
10788;DHT22;5446;50.826;4.380;2023-04-03T00:03:36;4.30;99.90
10788;DHT22;5446;50.826;4.380;2023-04-03T00:06:02;4.20;99.90
10788;DHT22;5446;50.826;4.380;2023-04-03T00:08:28;4.20;99.90
10788;DHT22;5446;50.826;4.380;2023-04-03T00:10:56;4.20;99.90
10788;DHT22;5446;50.826;4.380;2023-04-03T00:13:22;4.20;99.90
10788;DHT22;5446;50.826;4.380;2023-04-03T00:15:48;4.20;99.90
10788;DHT22;5446;50.826;4.380;2023-04-03T00:18:14;4.10;99.90
10788;DHT22;5446;50.826;4.380;2023-04-03T00:20:40;4.10;99.90
10788;DHT22;5446;50.826;4.380;2023-04-03T00:23:06;4.10;99.90
10788;DHT22;5446;50.826;4.380;2023-04-03T00:25:32;4.10;99.90
10788;DHT22;5446;50.826;4.380;2023-04-03T00:27:57;4.00;99.90
10788;DHT22;5446;50.826;4.380;2023-04-03T00:30:23;4.00;99.90
10788;DHT22;5446;50.826;4.380;2023-04-03T00:32:50;4.00;99.90
10788;DHT22;5446;50.826;4.380;2023-04-03T00:35:17;4.00;99.90
10788;DHT22;5446;50.826;4.380;2023-04-03T00:37:43;4.00;99.90
10788;DHT22;5446;50.826;4.380;2023-04-03T00:40:11;3.90;99.90
10788;DHT22;5446;50.826;4.380;2023-04-03T00:42:39;3.90;99.90
10788;DHT22;5446;50.826;4.380;2023-04-03T00:47:31;3.90;99.90
10788;DHT22;5446;50.826;4.380;2023-04-03T00:49:58;3.90;99.90
10788;DHT22;5446;50.826;4.380;2023-04-03T00:52:28;3.90;99.90
10788;DHT22;5446;50.826;4.380;2023-04-03T00:54:58;3.90;99.90
10788;DHT22;5446;50.826;4.380;2023-04-03T00:57:26;3.90;99.90
10788;DHT22;5446;50.826;4.380;2023-04-03T00:59:56;3.80;99.90
10788;DHT22;5446;50.826;4.380;2023-04-03T01:02:23;3.80;99.90
10788;DHT22;5446;50.826;4.380;2023-04-03T01:04:49;3.80;99.90
10788;DHT22;5446;50.826;4.380;2023-04-03T01:07:18;3.70;99.90
10788;DHT22;5446;50.826;4.380;2023-04-03T01:09:47;3.70;99.90
10788;DHT22;5446;50.826;4.380;2023-04-03T01:12:34;3.70;99.90
10788;DHT22;5446;50.826;4.380;2023-04-03T01:15:10;3.70;99.90
10788;DHT22;5446;50.826;4.380;2023-04-03T01:17:42;3.70;99.90
10788;DHT22;5446;50.826;4.380;2023-04-03T01:25:36;3.60;99.90
10788;DHT22;5446;50.826;4.380;2023-04-03T01:28:04;3.60;99.90
10788;DHT22;5446;50.826;4.380;2023-04-03T01:30:35;3.60;99.90
10788;DHT22;5446;50.826;4.380;2023-04-03T01:33:02;3.50;99.90
10788;DHT22;5446;50.826;4.380;2023-04-03T01:35:28;3.50;99.90
10788;DHT22;5446;50.826;4.380;2023-04-03T01:37:54;3.50;99.90
10788;DHT22;5446;50.826;4.380;2023-04-03T01:40:20;3.50;99.90
10788;DHT22;5446;50.826;4.380;2023-04-03T01:42:45;3.40;99.90
10788;DHT22;5446;50.826;4.380;2023-04-03T01:45:11;3.40;99.90
10788;DHT22;5446;50.826;4.380;2023-04-03T01:47:37;3.40;99.90
10788;DHT22;5446;50.826;4.380;2023-04-03T01:50:03;3.30;99.90
10788;DHT22;5446;50.826;4.380;2023-04-03T01:52:29;3.30;99.90
10788;DHT22;5446;50.826;4.380;2023-04-03T01:54:55;3.30;99.90
10788;DHT22;5446;50.826;4.380;2023-04-03T01:57:21;3.30;99.90
10788;DHT22;5446;50.826;4.380;2023-04-03T01:59:46;3.30;99.90
10788;DHT22;5446;50.826;4.380;2023-04-03T02:02:12;3.30;99.90
10788;DHT22;5446;50.826;4.380;2023-04-03T02:04:40;3.20;99.90
10788;DHT22;5446;50.826;4.380;2023-04-03T02:07:06;3.20;99.90
10788;DHT22;5446;50.826;4.380;2023-04-03T02:09:32;3.20;99.90
10788;DHT22;5446;50.826;4.380;2023-04-03T02:11:57;3.20;99.90
10788;DHT22;5446;50.826;4.380;2023-04-03T02:14:23;3.10;99.90
10788;DHT22;5446;50.826;4.380;2023-04-03T02:16:49;3.10;99.90
10788;DHT22;5446;50.826;4.380;2023-04-03T02:19:15;3.10;99.90
10788;DHT22;5446;50.826;4.380;2023-04-03T02:21:41;3.10;99.90
10788;DHT22;5446;50.826;4.380;2023-04-03T02:24:07;3.00;99.90
10788;DHT22;5446;50.826;4.380;2023-04-03T02:26:33;3.00;99.90
10788;DHT22;5446;50.826;4.380;2023-04-03T02:28:58;3.00;99.90
10788;DHT22;5446;50.826;4.380;2023-04-03T02:31:24;3.00;99.90
10788;DHT22;5446;50.826;4.380;2023-04-03T02:33:50;3.00;99.90
10788;DHT22;5446;50.826;4.380;2023-04-03T02:36:17;3.00;99.90
10788;DHT22;5446;50.826;4.380;2023-04-03T02:38:42;3.00;99.90
10788;DHT22;5446;50.826;4.380;2023-04-03T02:41:10;3.00;99.90
10788;DHT22;5446;50.826;4.380;2023-04-03T02:43:37;2.90;99.90
10788;DHT22;5446;50.826;4.380;2023-04-03T02:46:03;2.90;99.90
10788;DHT22;5446;50.826;4.380;2023-04-03T02:48:29;2.90;99.90
10788;DHT22;5446;50.826;4.380;2023-04-03T02:50:55;2.90;99.90
10788;DHT22;5446;50.826;4.380;2023-04-03T02:53:21;2.90;99.90
10788;DHT22;5446;50.826;4.380;2023-04-03T02:55:47;2.80;99.90
10788;DHT22;5446;50.826;4.380;2023-04-03T02:58:13;2.80;99.90
10788;DHT22;5446;50.826;4.380;2023-04-03T03:00:39;2.80;99.90
10788;DHT22;5446;50.826;4.380;2023-04-03T03:03:05;2.80;99.90
10788;DHT22;5446;50.826;4.380;2023-04-03T03:05:31;2.80;99.90
10788;DHT22;5446;50.826;4.380;2023-04-03T03:07:56;2.70;99.90
10788;DHT22;5446;50.826;4.380;2023-04-03T03:10:22;2.70;99.90
10788;DHT22;5446;50.826;4.380;2023-04-03T03:12:49;2.70;99.90
10788;DHT22;5446;50.826;4.380;2023-04-03T03:15:14;2.70;99.90
10788;DHT22;5446;50.826;4.380;2023-04-03T03:17:43;2.70;99.90
10788;DHT22;5446;50.826;4.380;2023-04-03T03:20:09;2.70;99.90
10788;DHT22;5446;50.826;4.380;2023-04-03T03:22:35;2.70;99.90
10788;DHT22;5446;50.826;4.380;2023-04-03T03:25:01;2.70;99.90
10788;DHT22;5446;50.826;4.380;2023-04-03T03:27:29;2.60;99.90
10788;DHT22;5446;50.826;4.380;2023-04-03T03:29:55;2.60;99.90
10788;DHT22;5446;50.826;4.380;2023-04-03T03:32:20;2.60;99.90
10788;DHT22;5446;50.826;4.380;2023-04-03T03:34:46;2.60;99.90
10788;DHT22;5446;50.826;4.380;2023-04-03T03:37:12;2.60;99.90
10788;DHT22;5446;50.826;4.380;2023-04-03T03:39:37;2.60;99.90
10788;DHT22;5446;50.826;4.380;2023-04-03T03:42:03;2.60;99.90
10788;DHT22;5446;50.826;4.380;2023-04-03T03:44:29;2.60;99.90
10788;DHT22;5446;50.826;4.380;2023-04-03T03:46:55;2.50;99.90
10788;DHT22;5446;50.826;4.380;2023-04-03T03:49:21;2.50;99.90
10788;DHT22;5446;50.826;4.380;2023-04-03T03:51:47;2.50;99.90
10788;DHT22;5446;50.826;4.380;2023-04-03T03:54:13;2.50;99.90
10788;DHT22;5446;50.826;4.380;2023-04-03T03:56:39;2.50;99.90
10788;DHT22;5446;50.826;4.380;2023-04-03T03:59:05;2.50;99.90
10788;DHT22;5446;50.826;4.380;2023-04-03T04:01:31;2.40;99.90
10788;DHT22;5446;50.826;4.380;2023-04-03T04:03:57;2.40;99.90
10788;DHT22;5446;50.826;4.380;2023-04-03T04:06:23;2.40;99.90
10788;DHT22;5446;50.826;4.380;2023-04-03T04:08:49;2.40;99.90
10788;DHT22;5446;50.826;4.380;2023-04-03T04:11:15;2.40;99.90
10788;DHT22;5446;50.826;4.380;2023-04-03T04:13:41;2.40;99.90
10788;DHT22;5446;50.826;4.380;2023-04-03T04:16:07;2.40;99.90
10788;DHT22;5446;50.826;4.380;2023-04-03T04:18:33;2.40;99.90
10788;DHT22;5446;50.826;4.380;2023-04-03T04:20:59;2.30;99.90
10788;DHT22;5446;50.826;4.380;2023-04-03T04:23:25;2.30;99.90
10788;DHT22;5446;50.826;4.380;2023-04-03T04:25:51;2.30;99.90
10788;DHT22;5446;50.826;4.380;2023-04-03T04:28:17;2.30;99.90
10788;DHT22;5446;50.826;4.380;2023-04-03T04:30:43;2.30;99.90
10788;DHT22;5446;50.826;4.380;2023-04-03T04:33:08;2.30;99.90
10788;DHT22;5446;50.826;4.380;2023-04-03T04:35:36;2.30;99.90
10788;DHT22;5446;50.826;4.380;2023-04-03T04:38:02;2.30;99.90
10788;DHT22;5446;50.826;4.380;2023-04-03T04:40:28;2.30;99.90
10788;DHT22;5446;50.826;4.380;2023-04-03T04:42:54;2.30;99.90
10788;DHT22;5446;50.826;4.380;2023-04-03T04:45:20;2.30;99.90
10788;DHT22;5446;50.826;4.380;2023-04-03T04:47:46;2.30;99.90
10788;DHT22;5446;50.826;4.380;2023-04-03T04:50:12;2.20;99.90
10788;DHT22;5446;50.826;4.380;2023-04-03T04:52:38;2.20;99.90
10788;DHT22;5446;50.826;4.380;2023-04-03T04:55:04;2.20;99.90
10788;DHT22;5446;50.826;4.380;2023-04-03T04:57:30;2.20;99.90
10788;DHT22;5446;50.826;4.380;2023-04-03T04:59:56;2.20;99.90
10788;DHT22;5446;50.826;4.380;2023-04-03T05:02:21;2.20;99.90
10788;DHT22;5446;50.826;4.380;2023-04-03T05:04:47;2.20;99.90
10788;DHT22;5446;50.826;4.380;2023-04-03T05:07:15;2.20;99.90
10788;DHT22;5446;50.826;4.380;2023-04-03T05:09:41;2.20;99.90
10788;DHT22;5446;50.826;4.380;2023-04-03T05:12:08;2.20;99.90
10788;DHT22;5446;50.826;4.380;2023-04-03T05:14:33;2.20;99.90
10788;DHT22;5446;50.826;4.380;2023-04-03T05:16:59;2.20;99.90
10788;DHT22;5446;50.826;4.380;2023-04-03T05:19:25;2.20;99.90
10788;DHT22;5446;50.826;4.380;2023-04-03T05:21:51;2.20;99.90
10788;DHT22;5446;50.826;4.380;2023-04-03T05:24:17;2.20;99.90
10788;DHT22;5446;50.826;4.380;2023-04-03T05:26:43;2.20;99.90
10788;DHT22;5446;50.826;4.380;2023-04-03T05:29:09;2.20;99.90
10788;DHT22;5446;50.826;4.380;2023-04-03T05:31:35;2.20;99.90
10788;DHT22;5446;50.826;4.380;2023-04-03T05:34:01;2.20;99.90
10788;DHT22;5446;50.826;4.380;2023-04-03T05:36:27;2.20;99.90
10788;DHT22;5446;50.826;4.380;2023-04-03T05:38:53;2.20;99.90
10788;DHT22;5446;50.826;4.380;2023-04-03T05:41:19;2.30;99.90
10788;DHT22;5446;50.826;4.380;2023-04-03T05:43:46;2.30;99.90
10788;DHT22;5446;50.826;4.380;2023-04-03T05:46:14;2.30;99.90
10788;DHT22;5446;50.826;4.380;2023-04-03T05:49:14;2.40;99.90
10788;DHT22;5446;50.826;4.380;2023-04-03T05:51:40;2.40;99.90
10788;DHT22;5446;50.826;4.380;2023-04-03T05:56:39;2.40;99.90
10788;DHT22;5446;50.826;4.380;2023-04-03T05:59:05;2.50;99.90
10788;DHT22;5446;50.826;4.380;2023-04-03T06:01:31;2.60;99.90
10788;DHT22;5446;50.826;4.380;2023-04-03T06:03:57;2.60;99.90
10788;DHT22;5446;50.826;4.380;2023-04-03T06:06:24;2.60;99.90
10788;DHT22;5446;50.826;4.380;2023-04-03T06:08:50;2.70;99.90
10788;DHT22;5446;50.826;4.380;2023-04-03T06:11:16;2.70;99.90
10788;DHT22;5446;50.826;4.380;2023-04-03T06:13:42;2.80;99.90
10788;DHT22;5446;50.826;4.380;2023-04-03T06:16:12;2.80;99.90
10788;DHT22;5446;50.826;4.380;2023-04-03T06:18:40;2.80;99.90
10788;DHT22;5446;50.826;4.380;2023-04-03T06:21:07;2.80;99.90
10788;DHT22;5446;50.826;4.380;2023-04-03T06:23:33;2.80;99.90
10788;DHT22;5446;50.826;4.380;2023-04-03T06:25:59;2.90;99.90
10788;DHT22;5446;50.826;4.380;2023-04-03T06:28:25;2.90;99.90
10788;DHT22;5446;50.826;4.380;2023-04-03T06:30:51;2.90;99.90
10788;DHT22;5446;50.826;4.380;2023-04-03T06:33:17;3.00;99.90
10788;DHT22;5446;50.826;4.380;2023-04-03T06:35:43;3.00;99.90
10788;DHT22;5446;50.826;4.380;2023-04-03T06:38:09;3.10;99.90
10788;DHT22;5446;50.826;4.380;2023-04-03T06:40:36;3.10;99.90
10788;DHT22;5446;50.826;4.380;2023-04-03T06:43:02;3.10;99.90
10788;DHT22;5446;50.826;4.380;2023-04-03T06:45:28;3.10;99.90
10788;DHT22;5446;50.826;4.380;2023-04-03T06:47:54;3.20;99.90
10788;DHT22;5446;50.826;4.380;2023-04-03T06:50:20;3.20;99.90
10788;DHT22;5446;50.826;4.380;2023-04-03T06:52:45;3.40;99.90
10788;DHT22;5446;50.826;4.380;2023-04-03T06:55:11;3.40;99.90
10788;DHT22;5446;50.826;4.380;2023-04-03T06:57:38;3.40;99.90
10788;DHT22;5446;50.826;4.380;2023-04-03T07:00:05;3.40;99.90
10788;DHT22;5446;50.826;4.380;2023-04-03T07:02:32;3.50;99.90
10788;DHT22;5446;50.826;4.380;2023-04-03T07:04:58;3.60;99.90
10788;DHT22;5446;50.826;4.380;2023-04-03T07:07:23;3.50;99.90
10788;DHT22;5446;50.826;4.380;2023-04-03T07:09:49;3.50;99.90
10788;DHT22;5446;50.826;4.380;2023-04-03T07:12:15;3.50;99.90
10788;DHT22;5446;50.826;4.380;2023-04-03T07:14:41;3.60;99.90
10788;DHT22;5446;50.826;4.380;2023-04-03T07:17:09;3.50;99.90
10788;DHT22;5446;50.826;4.380;2023-04-03T07:19:35;3.60;99.90
10788;DHT22;5446;50.826;4.380;2023-04-03T07:22:01;3.70;99.90
10788;DHT22;5446;50.826;4.380;2023-04-03T07:24:27;3.80;99.90
10788;DHT22;5446;50.826;4.380;2023-04-03T07:26:53;3.90;99.90
10788;DHT22;5446;50.826;4.380;2023-04-03T07:29:19;3.90;99.90
10788;DHT22;5446;50.826;4.380;2023-04-03T07:31:47;4.00;99.90
10788;DHT22;5446;50.826;4.380;2023-04-03T07:34:13;4.10;99.90
10788;DHT22;5446;50.826;4.380;2023-04-03T07:36:38;4.20;99.90
10788;DHT22;5446;50.826;4.380;2023-04-03T07:39:04;4.10;99.90
10788;DHT22;5446;50.826;4.380;2023-04-03T07:41:30;4.10;99.90
10788;DHT22;5446;50.826;4.380;2023-04-03T07:43:56;4.20;99.90
10788;DHT22;5446;50.826;4.380;2023-04-03T07:46:22;4.30;99.90
10788;DHT22;5446;50.826;4.380;2023-04-03T07:48:48;4.30;99.90
10788;DHT22;5446;50.826;4.380;2023-04-03T07:51:14;4.40;99.90
10788;DHT22;5446;50.826;4.380;2023-04-03T07:53:40;4.30;99.90
10788;DHT22;5446;50.826;4.380;2023-04-03T07:56:07;4.40;99.90
10788;DHT22;5446;50.826;4.380;2023-04-03T07:58:33;4.60;99.90
10788;DHT22;5446;50.826;4.380;2023-04-03T08:00:59;4.70;99.90
10788;DHT22;5446;50.826;4.380;2023-04-03T08:03:25;4.80;99.90
10788;DHT22;5446;50.826;4.380;2023-04-03T08:05:51;4.60;99.90
10788;DHT22;5446;50.826;4.380;2023-04-03T08:08:21;4.80;99.90
10788;DHT22;5446;50.826;4.380;2023-04-03T08:10:52;5.00;99.90
10788;DHT22;5446;50.826;4.380;2023-04-03T08:13:19;5.20;99.90
10788;DHT22;5446;50.826;4.380;2023-04-03T08:15:46;5.20;99.90
10788;DHT22;5446;50.826;4.380;2023-04-03T08:18:12;5.30;99.90
10788;DHT22;5446;50.826;4.380;2023-04-03T08:20:39;5.30;99.90
10788;DHT22;5446;50.826;4.380;2023-04-03T08:23:06;5.40;99.90
10788;DHT22;5446;50.826;4.380;2023-04-03T08:25:33;5.40;99.90
10788;DHT22;5446;50.826;4.380;2023-04-03T08:27:59;5.50;99.90
10788;DHT22;5446;50.826;4.380;2023-04-03T08:30:24;5.70;99.90
10788;DHT22;5446;50.826;4.380;2023-04-03T08:32:50;5.70;99.90
10788;DHT22;5446;50.826;4.380;2023-04-03T08:35:17;5.70;99.90
10788;DHT22;5446;50.826;4.380;2023-04-03T08:37:45;5.80;99.90
10788;DHT22;5446;50.826;4.380;2023-04-03T08:40:14;5.80;99.90
10788;DHT22;5446;50.826;4.380;2023-04-03T08:45:21;5.70;99.90
10788;DHT22;5446;50.826;4.380;2023-04-03T08:48:06;5.50;99.90
10788;DHT22;5446;50.826;4.380;2023-04-03T08:50:41;5.60;99.90
10788;DHT22;5446;50.826;4.380;2023-04-03T08:53:33;5.60;99.90
10788;DHT22;5446;50.826;4.380;2023-04-03T08:56:04;5.70;99.90
10788;DHT22;5446;50.826;4.380;2023-04-03T08:58:55;5.70;99.90
10788;DHT22;5446;50.826;4.380;2023-04-03T09:01:27;5.80;99.90
10788;DHT22;5446;50.826;4.380;2023-04-03T09:03:53;5.80;99.90
10788;DHT22;5446;50.826;4.380;2023-04-03T09:06:26;6.00;99.90
10788;DHT22;5446;50.826;4.380;2023-04-03T09:09:18;5.90;99.90
10788;DHT22;5446;50.826;4.380;2023-04-03T09:18:26;6.00;99.90
10788;DHT22;5446;50.826;4.380;2023-04-03T09:26:03;6.60;99.90
10788;DHT22;5446;50.826;4.380;2023-04-03T09:28:37;6.70;99.90
10788;DHT22;5446;50.826;4.380;2023-04-03T09:34:30;6.60;99.90
10788;DHT22;5446;50.826;4.380;2023-04-03T09:36:59;6.70;99.90
10788;DHT22;5446;50.826;4.380;2023-04-03T09:39:31;6.80;99.90
10788;DHT22;5446;50.826;4.380;2023-04-03T09:42:01;6.90;99.90
10788;DHT22;5446;50.826;4.380;2023-04-03T09:44:34;6.80;99.90
10788;DHT22;5446;50.826;4.380;2023-04-03T09:49:43;6.90;99.90
10788;DHT22;5446;50.826;4.380;2023-04-03T09:52:23;7.00;99.90
10788;DHT22;5446;50.826;4.380;2023-04-03T09:54:49;7.10;99.90
10788;DHT22;5446;50.826;4.380;2023-04-03T09:57:15;7.20;99.90
10788;DHT22;5446;50.826;4.380;2023-04-03T10:00:02;6.90;99.90
10788;DHT22;5446;50.826;4.380;2023-04-03T10:02:38;7.10;99.90
10788;DHT22;5446;50.826;4.380;2023-04-03T10:10:41;7.20;99.90
10788;DHT22;5446;50.826;4.380;2023-04-03T10:13:18;7.10;99.90
10788;DHT22;5446;50.826;4.380;2023-04-03T10:15:56;7.20;99.90
10788;DHT22;5446;50.826;4.380;2023-04-03T10:18:44;7.30;99.90
10788;DHT22;5446;50.826;4.380;2023-04-03T10:24:14;7.60;99.90
10788;DHT22;5446;50.826;4.380;2023-04-03T10:27:01;7.80;99.90
10788;DHT22;5446;50.826;4.380;2023-04-03T10:29:36;7.80;99.90
10788;DHT22;5446;50.826;4.380;2023-04-03T10:34:53;7.50;99.90
10788;DHT22;5446;50.826;4.380;2023-04-03T10:37:27;7.80;99.90
10788;DHT22;5446;50.826;4.380;2023-04-03T10:40:52;7.90;99.90
10788;DHT22;5446;50.826;4.380;2023-04-03T10:43:03;8.00;99.90
10788;DHT22;5446;50.826;4.380;2023-04-03T10:59:16;8.30;99.90
10788;DHT22;5446;50.826;4.380;2023-04-03T11:01:41;8.40;99.90
10788;DHT22;5446;50.826;4.380;2023-04-03T11:04:10;8.40;99.90
10788;DHT22;5446;50.826;4.380;2023-04-03T11:06:45;8.40;99.90
10788;DHT22;5446;50.826;4.380;2023-04-03T11:11:46;8.50;99.90
10788;DHT22;5446;50.826;4.380;2023-04-03T11:14:35;8.30;99.90
10788;DHT22;5446;50.826;4.380;2023-04-03T11:22:33;8.50;99.90
10788;DHT22;5446;50.826;4.380;2023-04-03T11:33:31;8.40;99.90
10788;DHT22;5446;50.826;4.380;2023-04-03T11:38:53;8.80;99.90
10788;DHT22;5446;50.826;4.380;2023-04-03T11:41:26;8.80;99.90
10788;DHT22;5446;50.826;4.380;2023-04-03T11:44:25;8.70;99.90
10788;DHT22;5446;50.826;4.380;2023-04-03T11:46:58;8.70;99.90
10788;DHT22;5446;50.826;4.380;2023-04-03T11:50:04;8.60;99.90
10788;DHT22;5446;50.826;4.380;2023-04-03T12:21:24;8.90;99.90
10788;DHT22;5446;50.826;4.380;2023-04-03T12:29:29;8.90;99.90
10788;DHT22;5446;50.826;4.380;2023-04-03T12:45:48;8.80;99.90
10788;DHT22;5446;50.826;4.380;2023-04-03T12:48:17;9.00;99.90
10788;DHT22;5446;50.826;4.380;2023-04-03T12:50:46;9.10;99.90
10788;DHT22;5446;50.826;4.380;2023-04-03T12:53:19;9.20;99.90
10788;DHT22;5446;50.826;4.380;2023-04-03T12:55:49;9.20;99.90
10788;DHT22;5446;50.826;4.380;2023-04-03T12:58:25;9.20;99.90
10788;DHT22;5446;50.826;4.380;2023-04-03T13:01:24;9.10;99.90
10788;DHT22;5446;50.826;4.380;2023-04-03T13:03:56;9.10;99.90
10788;DHT22;5446;50.826;4.380;2023-04-03T13:06:34;9.30;99.90
10788;DHT22;5446;50.826;4.380;2023-04-03T13:09:03;9.40;99.90
10788;DHT22;5446;50.826;4.380;2023-04-03T13:11:40;9.50;99.90
10788;DHT22;5446;50.826;4.380;2023-04-03T13:14:20;9.60;99.90
10788;DHT22;5446;50.826;4.380;2023-04-03T13:16:58;9.50;99.90
10788;DHT22;5446;50.826;4.380;2023-04-03T13:19:25;9.40;99.90
10788;DHT22;5446;50.826;4.380;2023-04-03T13:22:01;9.30;99.90
10788;DHT22;5446;50.826;4.380;2023-04-03T13:24:29;9.30;99.90
10788;DHT22;5446;50.826;4.380;2023-04-03T13:26:56;9.40;99.90
10788;DHT22;5446;50.826;4.380;2023-04-03T13:29:40;9.50;99.90
10788;DHT22;5446;50.826;4.380;2023-04-03T13:32:06;9.60;99.90
10788;DHT22;5446;50.826;4.380;2023-04-03T13:34:38;9.60;99.90
10788;DHT22;5446;50.826;4.380;2023-04-03T13:37:06;9.40;99.90
10788;DHT22;5446;50.826;4.380;2023-04-03T13:39:38;9.40;99.90
10788;DHT22;5446;50.826;4.380;2023-04-03T13:42:28;9.50;99.90
10788;DHT22;5446;50.826;4.380;2023-04-03T13:47:47;9.60;99.90
10788;DHT22;5446;50.826;4.380;2023-04-03T13:50:22;9.80;99.90
10788;DHT22;5446;50.826;4.380;2023-04-03T13:58:31;9.70;99.90
10788;DHT22;5446;50.826;4.380;2023-04-03T14:03:44;9.70;99.90
10788;DHT22;5446;50.826;4.380;2023-04-03T14:06:14;9.80;99.90
10788;DHT22;5446;50.826;4.380;2023-04-03T14:08:41;9.80;99.90
10788;DHT22;5446;50.826;4.380;2023-04-03T14:11:16;9.80;99.90
10788;DHT22;5446;50.826;4.380;2023-04-03T14:13:42;10.00;99.90
10788;DHT22;5446;50.826;4.380;2023-04-03T14:16:16;9.80;99.90
10788;DHT22;5446;50.826;4.380;2023-04-03T14:18:44;9.80;99.90
10788;DHT22;5446;50.826;4.380;2023-04-03T14:21:12;9.90;99.90
10788;DHT22;5446;50.826;4.380;2023-04-03T14:23:38;10.10;99.90
10788;DHT22;5446;50.826;4.380;2023-04-03T14:26:08;10.00;99.90
10788;DHT22;5446;50.826;4.380;2023-04-03T14:28:35;10.00;99.90
10788;DHT22;5446;50.826;4.380;2023-04-03T14:31:01;10.00;99.90
10788;DHT22;5446;50.826;4.380;2023-04-03T14:33:26;10.00;99.90
10788;DHT22;5446;50.826;4.380;2023-04-03T14:35:54;9.80;99.90
10788;DHT22;5446;50.826;4.380;2023-04-03T14:38:29;9.80;99.90
10788;DHT22;5446;50.826;4.380;2023-04-03T14:41:01;10.00;99.90
10788;DHT22;5446;50.826;4.380;2023-04-03T14:43:26;10.20;99.90
10788;DHT22;5446;50.826;4.380;2023-04-03T14:45:52;10.00;99.60
10788;DHT22;5446;50.826;4.380;2023-04-03T14:48:24;9.80;99.90
10788;DHT22;5446;50.826;4.380;2023-04-03T14:50:51;9.80;99.90
10788;DHT22;5446;50.826;4.380;2023-04-03T14:53:18;10.00;99.90
10788;DHT22;5446;50.826;4.380;2023-04-03T14:55:48;10.20;99.90
10788;DHT22;5446;50.826;4.380;2023-04-03T14:58:19;10.10;99.50
10788;DHT22;5446;50.826;4.380;2023-04-03T15:00:45;10.20;99.90
10788;DHT22;5446;50.826;4.380;2023-04-03T15:03:21;10.10;99.90
10788;DHT22;5446;50.826;4.380;2023-04-03T15:05:49;10.20;99.60
10788;DHT22;5446;50.826;4.380;2023-04-03T15:08:25;10.10;99.20
10788;DHT22;5446;50.826;4.380;2023-04-03T15:10:52;10.10;99.20
10788;DHT22;5446;50.826;4.380;2023-04-03T15:13:19;10.00;98.60
10788;DHT22;5446;50.826;4.380;2023-04-03T15:15:46;10.10;98.40
10788;DHT22;5446;50.826;4.380;2023-04-03T15:18:18;10.30;98.60
10788;DHT22;5446;50.826;4.380;2023-04-03T15:20:45;10.30;98.10
10788;DHT22;5446;50.826;4.380;2023-04-03T15:23:13;10.10;97.20
10788;DHT22;5446;50.826;4.380;2023-04-03T15:25:45;9.80;97.30
10788;DHT22;5446;50.826;4.380;2023-04-03T15:30:48;9.90;95.50
10788;DHT22;5446;50.826;4.380;2023-04-03T15:33:14;9.90;96.90
10788;DHT22;5446;50.826;4.380;2023-04-03T15:35:41;10.00;97.60
10788;DHT22;5446;50.826;4.380;2023-04-03T15:38:07;10.20;98.10
10788;DHT22;5446;50.826;4.380;2023-04-03T15:40:33;10.20;97.00
10788;DHT22;5446;50.826;4.380;2023-04-03T15:42:59;10.00;96.10
10788;DHT22;5446;50.826;4.380;2023-04-03T15:45:24;10.20;95.80
10788;DHT22;5446;50.826;4.380;2023-04-03T15:47:51;10.30;96.50
10788;DHT22;5446;50.826;4.380;2023-04-03T15:50:17;10.30;97.20
10788;DHT22;5446;50.826;4.380;2023-04-03T15:52:43;10.30;97.20
10788;DHT22;5446;50.826;4.380;2023-04-03T15:55:09;10.40;97.10
10788;DHT22;5446;50.826;4.380;2023-04-03T15:57:35;10.40;97.70
10788;DHT22;5446;50.826;4.380;2023-04-03T16:00:00;10.40;97.30
10788;DHT22;5446;50.826;4.380;2023-04-03T16:02:26;10.40;98.00
10788;DHT22;5446;50.826;4.380;2023-04-03T16:04:54;10.40;99.00
10788;DHT22;5446;50.826;4.380;2023-04-03T16:07:20;10.50;99.70
10788;DHT22;5446;50.826;4.380;2023-04-03T16:09:46;10.70;99.90
10788;DHT22;5446;50.826;4.380;2023-04-03T16:12:11;10.90;99.90
10788;DHT22;5446;50.826;4.380;2023-04-03T16:14:37;11.30;99.30
10788;DHT22;5446;50.826;4.380;2023-04-03T16:17:03;11.70;97.80
10788;DHT22;5446;50.826;4.380;2023-04-03T16:19:29;11.80;97.40
10788;DHT22;5446;50.826;4.380;2023-04-03T16:21:56;12.20;96.80
10788;DHT22;5446;50.826;4.380;2023-04-03T16:24:22;12.30;96.20
10788;DHT22;5446;50.826;4.380;2023-04-03T16:26:48;12.60;96.10
10788;DHT22;5446;50.826;4.380;2023-04-03T16:29:13;12.60;96.40
10788;DHT22;5446;50.826;4.380;2023-04-03T16:31:40;12.80;96.30
10788;DHT22;5446;50.826;4.380;2023-04-03T16:34:06;13.30;95.90
10788;DHT22;5446;50.826;4.380;2023-04-03T16:36:32;13.20;95.70
10788;DHT22;5446;50.826;4.380;2023-04-03T16:38:57;12.90;96.10
10788;DHT22;5446;50.826;4.380;2023-04-03T16:41:23;13.10;96.60
10788;DHT22;5446;50.826;4.380;2023-04-03T16:43:49;13.00;96.10
10788;DHT22;5446;50.826;4.380;2023-04-03T16:46:15;12.90;96.30
10788;DHT22;5446;50.826;4.380;2023-04-03T16:48:41;13.50;96.00
10788;DHT22;5446;50.826;4.380;2023-04-03T16:51:07;13.20;95.70
10788;DHT22;5446;50.826;4.380;2023-04-03T16:53:32;12.90;96.90
10788;DHT22;5446;50.826;4.380;2023-04-03T16:55:58;12.90;96.60
10788;DHT22;5446;50.826;4.380;2023-04-03T16:58:24;13.10;96.50
10788;DHT22;5446;50.826;4.380;2023-04-03T17:00:50;13.00;96.70
10788;DHT22;5446;50.826;4.380;2023-04-03T17:03:16;12.60;96.50
10788;DHT22;5446;50.826;4.380;2023-04-03T17:05:42;12.90;96.90
10788;DHT22;5446;50.826;4.380;2023-04-03T17:08:09;12.90;96.50
10788;DHT22;5446;50.826;4.380;2023-04-03T17:10:36;12.80;96.70
10788;DHT22;5446;50.826;4.380;2023-04-03T17:13:02;12.90;96.50
10788;DHT22;5446;50.826;4.380;2023-04-03T17:15:27;12.50;96.70
10788;DHT22;5446;50.826;4.380;2023-04-03T17:17:53;12.50;97.10
10788;DHT22;5446;50.826;4.380;2023-04-03T17:20:19;12.50;97.00
10788;DHT22;5446;50.826;4.380;2023-04-03T17:22:45;12.40;97.50
10788;DHT22;5446;50.826;4.380;2023-04-03T17:25:11;12.10;96.80
10788;DHT22;5446;50.826;4.380;2023-04-03T17:27:38;11.10;97.80
10788;DHT22;5446;50.826;4.380;2023-04-03T17:30:05;10.60;98.50
10788;DHT22;5446;50.826;4.380;2023-04-03T17:32:31;10.50;98.80
10788;DHT22;5446;50.826;4.380;2023-04-03T17:34:56;10.20;99.10
10788;DHT22;5446;50.826;4.380;2023-04-03T17:37:23;10.00;99.80
10788;DHT22;5446;50.826;4.380;2023-04-03T17:39:48;9.80;99.90
10788;DHT22;5446;50.826;4.380;2023-04-03T17:42:14;9.70;99.90
10788;DHT22;5446;50.826;4.380;2023-04-03T17:44:40;9.60;99.90
10788;DHT22;5446;50.826;4.380;2023-04-03T17:47:10;9.60;99.90
10788;DHT22;5446;50.826;4.380;2023-04-03T17:49:36;9.50;99.90
10788;DHT22;5446;50.826;4.380;2023-04-03T17:52:02;9.40;99.90
10788;DHT22;5446;50.826;4.380;2023-04-03T17:54:27;9.30;99.90
10788;DHT22;5446;50.826;4.380;2023-04-03T17:56:53;9.20;99.90
10788;DHT22;5446;50.826;4.380;2023-04-03T17:59:19;9.10;99.90
10788;DHT22;5446;50.826;4.380;2023-04-03T18:08:20;8.90;99.90
10788;DHT22;5446;50.826;4.380;2023-04-03T18:10:46;8.80;99.90
10788;DHT22;5446;50.826;4.380;2023-04-03T18:13:12;8.70;99.90
10788;DHT22;5446;50.826;4.380;2023-04-03T18:15:37;8.70;99.90
10788;DHT22;5446;50.826;4.380;2023-04-03T18:18:10;8.60;99.90
10788;DHT22;5446;50.826;4.380;2023-04-03T18:20:37;8.50;99.90
10788;DHT22;5446;50.826;4.380;2023-04-03T18:23:03;8.50;99.90
10788;DHT22;5446;50.826;4.380;2023-04-03T18:25:30;8.40;99.90
10788;DHT22;5446;50.826;4.380;2023-04-03T18:27:55;8.30;99.90
10788;DHT22;5446;50.826;4.380;2023-04-03T18:30:23;8.30;99.90